Pagina principale
METAR-TAF:

METAR-TAF

Aeroporti :

Aeroporto di Napoli-Capodichino

Napoli, Italia

latitudine: 40-51N, longitudine: 014-18E, altezza: 88 m

Osservazione

Il bollettino è stato emesso 52 minuti fa, alle 15:20 UTC
Vento 3 kt da sud, variando fra sud/sud-est e sud/sud-ovest
Temperature 17°C
Umidità 68%
Pressione 1014 hPa
Visibilità 10 km o più
Nubi sparse ad un'altezza di 7000 ft

METAR: LIRN 061520Z 18003KT 150V210 9999 SCT070 17/11 Q1014 NOSIG

Ora: 17:12 (16:12 UTC)

Previsione

Il bollettino è stato emesso 5 ore e 12 minuti fa, alle 11:00 UTC
Previsione valida dal 06 alle 12 UTC al 07 alle 12 UTC
Vento 8 kt da nord/nord-est
Visibilità 10 km o più
Nubi sparse ad un'altezza di 2500 ft

TAF: LIRN 061100Z 0612/0712 03008KT 9999 SCT025

Osservazioni e previsioni meteorologiche di più di 4000 aeroporti (messaggi METAR e TAF).

Le stazioni disponibili sono rappresentate dai dischi gialli e rossi sulla carta.

Puntare il mouse per vedere il nome della stazione.

Clicca sopra per visualizzare le osservazioni e previsioni meteorologiche.

Per cambiare la mappa : fare clic sui pulsanti verdi con una croce nera per ingrandire, il pulsante verde con un trattino per diminuire, o sulla freccia verde per le mappe adiacenti.


METAR-TAF: